Time;durP1;ratioP1;P1;durP2;ratioP2;P2;SDS_P1;SDS_P2;PMS_P1;PMS_P2;Temp;Humidity;BMP_temperature;BMP_pressure;BME280_temperature;BME280_humidity;BME280_pressure;Samples;Min_cycle;Max_cycle;Signal;HPM_P1;HPM_P2
2021/10/13 00:01:20;;;;;;;10.93;3.60;;;;;;;5.82;100.00;100811.66;5036303;28;20099;-67
2021/10/13 00:03:47;;;;;;;14.45;3.85;;;;;;;5.85;100.00;100818.66;5035151;28;20454;-69
2021/10/13 00:06:14;;;;;;;12.10;4.65;;;;;;;5.79;100.00;100817.06;5036566;28;20061;-68
2021/10/13 00:08:41;;;;;;;11.07;3.72;;;;;;;5.75;100.00;100820.72;5035802;28;20053;-67
2021/10/13 00:11:07;;;;;;;10.07;4.30;;;;;;;5.69;100.00;100821.78;5036292;28;20064;-69
2021/10/13 00:13:34;;;;;;;13.00;4.88;;;;;;;5.77;100.00;100831.28;5036104;28;20041;-71
2021/10/13 00:16:01;;;;;;;16.38;4.47;;;;;;;5.73;100.00;100833.16;5035092;28;20054;-68
2021/10/13 00:18:28;;;;;;;12.02;3.63;;;;;;;5.73;100.00;100833.16;5034997;28;20113;-68
2021/10/13 00:20:55;;;;;;;19.08;3.70;;;;;;;5.77;100.00;100829.47;5035353;28;20088;-70
2021/10/13 00:23:22;;;;;;;13.75;4.43;;;;;;;5.84;100.00;100822.22;5036172;28;20041;-69
2021/10/13 00:25:48;;;;;;;13.75;4.63;;;;;;;5.81;100.00;100820.53;5035036;28;20042;-70
2021/10/13 00:28:15;;;;;;;8.40;3.80;;;;;;;5.76;100.00;100826.84;5034818;28;20049;-69
2021/10/13 00:30:42;;;;;;;9.75;3.60;;;;;;;5.81;100.00;100836.41;5034931;28;20063;-67
2021/10/13 00:33:09;;;;;;;11.40;4.60;;;;;;;5.77;100.00;100845.38;5035896;28;20324;-67
2021/10/13 00:35:36;;;;;;;14.32;3.83;;;;;;;5.81;100.00;100840.84;5035937;28;20056;-66
2021/10/13 00:38:03;;;;;;;13.35;3.50;;;;;;;5.69;100.00;100832.38;5035673;28;20438;-68
2021/10/13 00:40:30;;;;;;;13.90;4.38;;;;;;;5.75;100.00;100839.25;5034524;28;20048;-69
2021/10/13 00:42:57;;;;;;;12.38;3.95;;;;;;;5.75;100.00;100841.91;5035422;28;20045;-68
2021/10/13 00:45:24;;;;;;;9.35;3.72;;;;;;;5.75;100.00;100843.66;5034625;28;20119;-68
2021/10/13 00:47:51;;;;;;;12.75;4.50;;;;;;;5.78;100.00;100833.00;5035435;28;20049;-69
2021/10/13 00:50:18;;;;;;;11.70;4.20;;;;;;;5.83;100.00;100829.28;5035523;28;20049;-68
2021/10/13 00:52:45;;;;;;;10.27;3.65;;;;;;;5.80;100.00;100825.88;5035666;28;20080;-68
2021/10/13 00:55:20;;;;;;;6.85;3.40;;;;;;;5.74;100.00;100829.56;5034397;28;20105;-70
2021/10/13 00:57:51;;;;;;;11.23;3.83;;;;;;;5.74;100.00;100824.28;5035326;28;20382;-68
2021/10/13 01:00:21;;;;;;;11.32;3.67;;;;;;;5.74;100.00;100834.00;5034515;28;20105;-69
2021/10/13 01:03:13;;;;;;;11.15;3.83;;;;;;;5.72;100.00;100841.97;5035404;28;20037;-67
2021/10/13 01:05:52;;;;;;;10.77;3.92;;;;;;;5.74;100.00;100837.53;5035389;28;20042;-68
2021/10/13 01:08:43;;;;;;;11.15;3.58;;;;;;;5.70;100.00;100841.16;5035134;28;20062;-68
2021/10/13 01:11:24;;;;;;;5.63;2.22;;;;;;;5.67;100.00;100843.91;5035361;28;20045;-68
2021/10/13 01:14:28;;;;;;;9.57;3.85;;;;;;;5.61;100.00;100841.44;5035223;28;20469;-69
2021/10/13 01:17:10;;;;;;;11.35;3.25;;;;;;;5.55;100.00;100834.53;5035421;28;20041;-67
2021/10/13 01:20:24;;;;;;;9.45;3.30;;;;;;;5.54;100.00;100844.28;5035199;28;20045;-67
2021/10/13 01:23:18;;;;;;;13.63;3.92;;;;;;;5.52;100.00;100838.16;5035347;28;20129;-67
2021/10/13 01:25:53;;;;;;;8.18;4.00;;;;;;;5.48;100.00;100836.50;5037441;28;20052;-67
2021/10/13 01:28:25;;;;;;;14.15;4.00;;;;;;;5.48;100.00;100838.28;5036888;28;20041;-68
2021/10/13 01:31:09;;;;;;;10.40;4.45;;;;;;;5.41;100.00;100833.16;5035414;28;20045;-67
2021/10/13 01:33:41;;;;;;;11.02;4.82;;;;;;;5.49;100.00;100840.03;5036028;28;20046;-67
2021/10/13 01:36:14;;;;;;;13.45;4.38;;;;;;;5.47;100.00;100840.06;5036491;28;20382;-69
2021/10/13 01:38:47;;;;;;;16.58;4.70;;;;;;;5.44;100.00;100838.38;5039147;28;20049;-68
2021/10/13 01:41:17;;;;;;;12.25;4.47;;;;;;;5.47;100.00;100842.72;5038935;28;20049;-68
2021/10/13 01:43:49;;;;;;;14.27;4.65;;;;;;;5.50;100.00;100841.75;5038854;28;20052;-68
2021/10/13 01:46:18;;;;;;;10.20;4.47;;;;;;;5.46;100.00;100840.09;5038999;28;20099;-70
2021/10/13 01:48:45;;;;;;;13.10;5.72;;;;;;;5.52;100.00;100850.53;5038699;28;20045;-68
2021/10/13 01:51:14;;;;;;;9.02;4.70;;;;;;;5.56;100.00;100852.19;5038793;28;20050;-67
2021/10/13 01:53:42;;;;;;;12.65;5.78;;;;;;;5.64;100.00;100846.63;5037758;28;20044;-70
2021/10/13 01:56:10;;;;;;;11.35;6.03;;;;;;;5.68;100.00;100856.25;5038759;28;20073;-69
2021/10/13 01:58:38;;;;;;;14.48;5.30;;;;;;;5.76;100.00;100845.41;5037602;28;20073;-68
2021/10/13 02:01:10;;;;;;;13.82;5.40;;;;;;;5.77;100.00;100848.00;5038522;28;20431;-70
2021/10/13 02:03:39;;;;;;;13.57;5.65;;;;;;;5.81;100.00;100851.44;5038493;28;20049;-68
2021/10/13 02:06:06;;;;;;;10.25;5.88;;;;;;;5.81;100.00;100844.38;5038539;28;20049;-69
2021/10/13 02:08:37;;;;;;;16.27;7.15;;;;;;;5.89;100.00;100845.91;5037539;28;20123;-70
2021/10/13 02:11:06;;;;;;;11.75;5.72;;;;;;;5.86;100.00;100844.22;5037516;28;20047;-68
2021/10/13 02:13:35;;;;;;;16.23;5.95;;;;;;;5.99;100.00;100855.31;5037341;28;20390;-68
2021/10/13 02:16:03;;;;;;;12.30;6.13;;;;;;;5.97;100.00;100852.72;5038452;28;20045;-67
2021/10/13 02:18:32;;;;;;;15.60;5.68;;;;;;;5.96;100.00;100864.25;5038400;28;20045;-69
2021/10/13 02:21:02;;;;;;;14.80;6.28;;;;;;;5.99;100.00;100860.59;5038034;28;20066;-68
2021/10/13 02:23:33;;;;;;;15.07;6.72;;;;;;;6.03;100.00;100851.69;5038301;28;20095;-69
2021/10/13 02:26:04;;;;;;;14.02;6.70;;;;;;;6.04;100.00;100858.72;5038217;28;20045;-69
2021/10/13 02:28:35;;;;;;;14.02;7.43;;;;;;;6.08;100.00;100848.88;5037404;28;20148;-69
2021/10/13 02:31:03;;;;;;;10.00;5.88;;;;;;;6.06;100.00;100851.56;5038156;28;20091;-69
2021/10/13 02:33:30;;;;;;;15.10;6.80;;;;;;;6.06;100.00;100851.56;5037952;28;20390;-68
2021/10/13 02:35:57;;;;;;;13.20;6.75;;;;;;;6.02;100.00;100847.31;5037951;28;20056;-68
2021/10/13 02:38:24;;;;;;;13.40;6.80;;;;;;;6.06;100.00;100856.88;5036846;28;20041;-67
2021/10/13 02:40:51;;;;;;;12.57;6.10;;;;;;;6.05;100.00;100864.91;5036755;28;20064;-69
2021/10/13 02:43:18;;;;;;;17.55;6.82;;;;;;;6.07;100.00;100874.53;5037906;28;20060;-68
2021/10/13 02:45:51;;;;;;;12.93;7.00;;;;;;;6.02;100.00;100855.25;5036871;28;20041;-69
2021/10/13 02:48:25;;;;;;;13.82;7.38;;;;;;;6.17;100.00;100879.53;5035650;28;20418;-68
2021/10/13 02:51:01;;;;;;;11.13;6.45;;;;;;;6.18;100.00;100882.16;5037197;28;20494;-69
2021/10/13 02:53:47;;;;;;;12.55;7.28;;;;;;;6.21;100.00;100884.69;5036820;28;20430;-67
2021/10/13 02:56:22;;;;;;;15.88;7.38;;;;;;;6.34;100.00;100893.16;5037519;28;20053;-70
2021/10/13 02:59:26;;;;;;;20.17;9.45;;;;;;;6.27;100.00;100890.72;5036793;28;20050;-69
2021/10/13 03:02:01;;;;;;;12.10;6.82;;;;;;;6.24;100.00;100892.56;5033815;28;20465;-67
2021/10/13 03:04:34;;;;;;;19.05;7.68;;;;;;;6.26;100.00;100887.19;5036336;28;20103;-67
2021/10/13 03:07:16;;;;;;;19.92;7.47;;;;;;;6.19;100.00;100877.72;5036437;28;20045;-67
2021/10/13 03:09:53;;;;;;;14.43;6.78;;;;;;;6.24;100.00;100899.66;5037377;28;20054;-67
2021/10/13 03:12:23;;;;;;;10.57;6.57;;;;;;;6.24;100.00;100891.69;5037432;28;20060;-68
2021/10/13 03:14:55;;;;;;;14.02;7.22;;;;;;;6.27;100.00;100890.72;5037695;28;20099;-68
2021/10/13 03:17:23;;;;;;;15.70;7.13;;;;;;;6.31;100.00;100895.03;5037259;28;20103;-69
2021/10/13 03:19:53;;;;;;;20.52;6.85;;;;;;;6.36;100.00;100886.00;5037346;28;20580;-67
2021/10/13 03:22:22;;;;;;;18.42;7.10;;;;;;;6.35;100.00;100894.00;5036235;28;20049;-67
2021/10/13 03:24:49;;;;;;;17.15;7.55;;;;;;;6.44;100.00;100900.81;5037123;28;20045;-70
2021/10/13 03:27:17;;;;;;;18.10;7.25;;;;;;;6.44;100.00;100904.34;5032445;28;20108;-69
2021/10/13 03:29:43;;;;;;;20.33;8.15;;;;;;;6.40;100.00;100900.03;5017329;28;20056;-67
2021/10/13 03:32:10;;;;;;;15.38;7.65;;;;;;;6.43;100.00;100902.56;5017358;28;20046;-68
2021/10/13 03:34:40;;;;;;;16.65;7.75;;;;;;;6.36;100.00;100896.63;5016039;28;20050;-70
2021/10/13 03:37:07;;;;;;;20.90;6.95;;;;;;;6.46;100.00;100897.19;5017040;28;20363;-70
2021/10/13 03:39:33;;;;;;;10.88;7.07;;;;;;;6.38;100.00;100893.94;5017105;28;20079;-69
2021/10/13 03:42:01;;;;;;;13.88;7.70;;;;;;;6.39;100.00;100893.84;5015979;28;20049;-67
2021/10/13 03:44:28;;;;;;;18.50;7.93;;;;;;;6.43;100.00;100897.28;5016171;28;20100;-68
2021/10/13 03:46:55;;;;;;;17.45;7.93;;;;;;;6.41;100.00;100898.22;5021705;28;20104;-68
2021/10/13 03:49:22;;;;;;;14.05;7.65;;;;;;;6.37;100.00;100903.66;5017910;28;20046;-68
2021/10/13 03:51:48;;;;;;;18.48;7.93;;;;;;;6.39;100.00;100908.91;5018220;28;20120;-66
2021/10/13 03:54:15;;;;;;;19.50;8.18;;;;;;;6.39;100.00;100907.13;5016824;28;20049;-66
2021/10/13 03:56:42;;;;;;;14.50;7.28;;;;;;;6.38;100.00;100910.69;5029908;28;20053;-69
2021/10/13 03:59:09;;;;;;;20.10;7.82;;;;;;;6.38;100.00;100916.00;5036195;28;20045;-69
2021/10/13 04:01:35;;;;;;;14.02;7.97;;;;;;;6.37;100.00;100916.91;5023523;28;20343;-69
2021/10/13 04:04:03;;;;;;;20.38;8.27;;;;;;;6.41;100.00;100916.78;5030182;28;20041;-67
2021/10/13 04:06:29;;;;;;;16.88;7.22;;;;;;;6.49;100.00;100928.91;5036557;28;20338;-68
2021/10/13 04:08:57;;;;;;;23.02;8.43;;;;;;;6.48;100.00;100923.66;5035164;28;20439;-69
2021/10/13 04:11:23;;;;;;;18.48;8.18;;;;;;;6.54;100.00;100926.09;5036131;28;20041;-68
2021/10/13 04:13:50;;;;;;;18.40;8.25;;;;;;;6.54;100.00;100936.72;5036515;28;20439;-67
2021/10/13 04:16:17;;;;;;;10.85;7.45;;;;;;;6.55;100.00;100932.28;5036342;28;20095;-68
2021/10/13 04:18:44;;;;;;;18.73;9.43;;;;;;;6.56;100.00;100940.19;5036139;28;20328;-69
2021/10/13 04:21:10;;;;;;;18.05;8.63;;;;;;;6.54;100.00;100935.84;5034973;28;20052;-69
2021/10/13 04:23:37;;;;;;;18.02;8.82;;;;;;;6.57;100.00;100944.59;5036090;28;20435;-67
2021/10/13 04:26:04;;;;;;;15.32;8.23;;;;;;;6.53;100.00;100927.03;4991499;28;20042;-68
2021/10/13 04:28:31;;;;;;;19.63;8.80;;;;;;;6.51;100.00;100929.75;5016262;28;20049;-68
2021/10/13 04:30:57;;;;;;;13.25;8.00;;;;;;;6.51;100.00;100937.69;5016231;28;20089;-68
2021/10/13 04:33:24;;;;;;;20.20;8.32;;;;;;;6.57;100.00;100938.41;5015031;28;20054;-70
2021/10/13 04:35:51;;;;;;;19.50;8.10;;;;;;;6.52;100.00;100934.13;5017099;28;20046;-70
2021/10/13 04:38:18;;;;;;;12.10;7.72;;;;;;;6.51;100.00;100927.09;5018355;28;20053;-68
2021/10/13 04:40:45;;;;;;;21.77;8.25;;;;;;;6.53;100.00;100929.69;5015765;28;20074;-69
2021/10/13 04:43:11;;;;;;;11.60;7.97;;;;;;;6.55;100.00;100942.91;4998622;28;20100;-68
2021/10/13 04:45:38;;;;;;;19.67;9.00;;;;;;;6.51;100.00;100942.13;5016035;28;20108;-67
2021/10/13 04:48:05;;;;;;;16.00;8.40;;;;;;;6.51;100.00;100936.81;5024005;28;20053;-69
2021/10/13 04:50:32;;;;;;;22.80;8.82;;;;;;;6.51;100.00;100942.13;5035367;28;20425;-67
2021/10/13 04:53:01;;;;;;;15.88;8.57;;;;;;;6.49;100.00;100938.66;5020480;28;20049;-69
2021/10/13 04:55:28;;;;;;;17.30;8.05;;;;;;;6.55;100.00;100934.94;5028973;28;20056;-72
2021/10/13 04:57:54;;;;;;;20.35;8.90;;;;;;;6.61;100.00;100932.97;5045205;28;20059;-76
2021/10/13 05:00:21;;;;;;;18.02;8.32;;;;;;;6.54;100.00;100928.75;5034955;28;20373;-70
2021/10/13 05:02:48;;;;;;;17.98;9.15;;;;;;;6.61;100.00;100932.09;5031162;28;20429;-70
2021/10/13 05:05:15;;;;;;;22.27;9.43;;;;;;;6.59;100.00;100928.63;5017419;28;20388;-69
2021/10/13 05:07:42;;;;;;;19.83;8.52;;;;;;;6.57;100.00;100917.19;5030732;28;20065;-70
2021/10/13 05:10:09;;;;;;;16.42;8.23;;;;;;;6.60;100.00;100925.06;5035977;28;20394;-70
2021/10/13 05:12:36;;;;;;;18.67;9.10;;;;;;;6.59;100.00;100929.47;5031309;28;20041;-70
2021/10/13 05:15:03;;;;;;;14.02;7.78;;;;;;;6.59;100.00;100929.47;5032201;28;20052;-71
2021/10/13 05:17:30;;;;;;;20.98;8.35;;;;;;;6.62;100.00;100933.81;5022324;28;20386;-70
2021/10/13 05:19:57;;;;;;;18.17;9.35;;;;;;;6.66;100.00;100935.47;5040783;28;20187;-72
2021/10/13 05:22:24;;;;;;;22.42;8.77;;;;;;;6.66;100.00;100936.31;5032588;28;20041;-69
2021/10/13 05:24:51;;;;;;;19.90;8.85;;;;;;;6.68;100.00;100944.25;5032259;28;20034;-70
2021/10/13 05:27:18;;;;;;;12.05;7.85;;;;;;;6.70;100.00;100950.34;5024064;28;20128;-69
2021/10/13 05:29:44;;;;;;;17.23;8.07;;;;;;;6.67;100.00;100947.81;5016946;28;20056;-71
2021/10/13 05:32:11;;;;;;;17.85;7.75;;;;;;;6.69;100.00;100947.78;5029724;28;20386;-70
2021/10/13 05:34:38;;;;;;;23.10;9.55;;;;;;;6.69;100.00;100945.13;5029866;28;20339;-74
2021/10/13 05:37:05;;;;;;;15.40;8.35;;;;;;;6.68;100.00;100953.97;5010895;28;20476;-70
2021/10/13 05:39:32;;;;;;;15.68;8.55;;;;;;;6.72;100.00;100948.53;5039280;28;20042;-70
2021/10/13 05:41:58;;;;;;;14.20;8.77;;;;;;;6.69;100.00;100950.44;5032155;28;20648;-70
2021/10/13 05:44:25;;;;;;;15.07;9.05;;;;;;;6.69;100.00;100959.22;5030679;28;20041;-71
2021/10/13 05:46:52;;;;;;;16.23;9.32;;;;;;;6.71;100.00;100953.88;5031211;28;20054;-69
2021/10/13 05:49:19;;;;;;;16.50;8.27;;;;;;;6.73;100.00;100960.00;5032266;28;20073;-69
2021/10/13 05:51:46;;;;;;;18.45;9.70;;;;;;;6.72;100.00;100966.22;5032814;28;20048;-69
2021/10/13 05:54:12;;;;;;;16.27;8.95;;;;;;;6.69;100.00;100963.69;5031958;28;20042;-69
2021/10/13 05:56:39;;;;;;;18.30;8.88;;;;;;;6.69;100.00;100971.66;5048330;28;20075;-69
2021/10/13 05:59:06;;;;;;;26.52;10.02;;;;;;;6.70;100.00;100974.22;5016923;28;20041;-69
2021/10/13 06:01:33;;;;;;;18.63;9.38;;;;;;;6.68;100.00;100976.06;5030493;28;20076;-69
2021/10/13 06:04:00;;;;;;;18.27;8.85;;;;;;;6.73;100.00;100979.47;5033952;28;20051;-74
2021/10/13 06:06:27;;;;;;;18.67;9.23;;;;;;;6.77;100.00;100982.88;5047115;28;20423;-69
2021/10/13 06:08:54;;;;;;;17.30;8.73;;;;;;;6.76;100.00;100986.47;5047079;28;20451;-71
2021/10/13 06:11:21;;;;;;;20.60;9.40;;;;;;;6.77;100.00;100988.19;5028290;28;20411;-70
2021/10/13 06:13:49;;;;;;;16.77;9.95;;;;;;;6.77;100.00;100986.38;5035617;28;20050;-68
2021/10/13 06:16:15;;;;;;;19.13;9.07;;;;;;;6.88;100.00;100990.50;5032191;28;20044;-72
2021/10/13 06:18:42;;;;;;;29.60;10.23;;;;;;;6.91;100.00;100987.72;5034486;28;20073;-68
2021/10/13 06:21:09;;;;;;;19.05;8.98;;;;;;;6.92;100.00;100995.66;5033410;28;20057;-70
2021/10/13 06:23:36;;;;;;;18.58;9.30;;;;;;;6.90;100.00;100997.50;5019773;28;20041;-68
2021/10/13 06:26:02;;;;;;;14.15;8.40;;;;;;;7.00;100.00;101002.50;5038228;28;20052;-68
2021/10/13 06:28:30;;;;;;;14.45;8.52;;;;;;;6.99;100.00;101000.75;5038041;28;20056;-70
2021/10/13 06:30:57;;;;;;;23.20;9.80;;;;;;;6.96;100.00;101007.03;5038026;28;20053;-70
2021/10/13 06:33:24;;;;;;;14.05;8.25;;;;;;;7.04;100.00;101014.75;5037187;28;20042;-71
2021/10/13 06:35:51;;;;;;;22.90;9.40;;;;;;;7.04;100.00;101017.41;5038075;28;20075;-69
2021/10/13 06:38:18;;;;;;;18.73;8.73;;;;;;;7.06;100.00;101020.88;5037964;28;20057;-68
2021/10/13 06:40:45;;;;;;;17.52;8.07;;;;;;;7.02;100.00;101028.06;5020804;28;20041;-69
2021/10/13 06:43:12;;;;;;;14.18;8.30;;;;;;;7.04;100.00;101023.56;5036783;28;20050;-69
2021/10/13 06:45:39;;;;;;;15.23;8.68;;;;;;;7.14;100.00;101040.06;5020532;28;20372;-70
2021/10/13 06:48:06;;;;;;;18.95;8.75;;;;;;;7.12;100.00;101033.06;5037936;28;20378;-68
2021/10/13 06:50:34;;;;;;;16.42;9.00;;;;;;;7.18;100.00;101038.19;5037918;28;20053;-71
2021/10/13 06:53:02;;;;;;;19.45;9.27;;;;;;;7.20;100.00;101034.56;5037859;28;20072;-71
2021/10/13 06:55:31;;;;;;;16.17;8.05;;;;;;;7.23;100.00;101030.09;5037607;28;20091;-69
2021/10/13 06:57:58;;;;;;;15.35;8.63;;;;;;;7.23;100.00;101035.41;5036780;28;20053;-71
2021/10/13 07:00:25;;;;;;;19.40;8.57;;;;;;;7.26;100.00;101037.94;5020349;28;20049;-71
2021/10/13 07:02:52;;;;;;;19.67;9.02;;;;;;;7.28;100.00;101041.41;5036299;28;20098;-70
2021/10/13 07:05:19;;;;;;;17.67;8.20;;;;;;;7.29;100.00;101053.75;5037368;28;20083;-69
2021/10/13 07:07:48;;;;;;;21.23;8.80;;;;;;;7.31;100.00;101043.97;5037472;28;20041;-68
2021/10/13 07:10:17;;;;;;;16.90;8.90;;;;;;;7.31;100.00;101052.78;5037196;28;20057;-70
2021/10/13 07:12:47;;;;;;;18.75;7.55;;;;;;;7.39;100.00;101056.97;5052834;28;20049;-70
2021/10/13 07:15:13;;;;;;;22.25;9.43;;;;;;;7.34;100.00;101054.47;5050872;28;20057;-70
2021/10/13 07:17:41;;;;;;;16.27;7.75;;;;;;;7.40;100.00;101059.59;5037312;28;20045;-69
2021/10/13 07:20:09;;;;;;;15.13;8.52;;;;;;;7.39;100.00;101051.66;5037129;28;20049;-68
2021/10/13 07:22:36;;;;;;;22.77;8.52;;;;;;;7.48;100.00;101052.22;5036040;28;20423;-69
2021/10/13 07:25:05;;;;;;;17.52;8.48;;;;;;;7.59;100.00;101065.16;5036899;28;20045;-69
2021/10/13 07:27:32;;;;;;;17.42;8.35;;;;;;;7.57;100.00;101051.06;5037223;28;20045;-69
2021/10/13 07:30:02;;;;;;;19.55;8.45;;;;;;;7.64;100.00;101054.38;5037060;28;20041;-69
2021/10/13 07:32:31;;;;;;;19.02;7.65;;;;;;;7.71;100.00;101057.69;5036999;28;20435;-69
2021/10/13 07:35:19;;;;;;;15.93;6.75;;;;;;;7.63;100.00;101044.66;5036258;28;20351;-70
2021/10/13 07:37:46;;;;;;;16.10;7.85;;;;;;;7.67;100.00;101062.25;5036864;28;20512;-70
2021/10/13 07:40:12;;;;;;;21.60;8.23;;;;;;;7.71;100.00;101058.56;5035736;28;20115;-68
2021/10/13 07:42:39;;;;;;;20.23;7.80;;;;;;;7.81;100.00;101058.22;5035522;28;20071;-69
2021/10/13 07:45:07;;;;;;;17.60;8.25;;;;;;;7.73;100.00;101067.34;5036863;28;20095;-70
2021/10/13 07:47:34;;;;;;;13.35;7.15;;;;;;;7.81;100.00;101068.88;5037072;28;20056;-70
2021/10/13 07:50:01;;;;;;;15.13;8.95;;;;;;;7.87;100.00;101071.31;5036534;28;20119;-69
2021/10/13 07:52:27;;;;;;;18.42;7.78;;;;;;;7.92;100.00;101072.03;5035544;28;20041;-69
2021/10/13 07:54:54;;;;;;;20.58;8.82;;;;;;;7.96;100.00;101072.78;5036567;28;20103;-68
2021/10/13 07:57:21;;;;;;;17.77;7.72;;;;;;;7.88;100.00;101078.34;5036770;28;20323;-69
2021/10/13 07:59:50;;;;;;;22.02;8.93;;;;;;;7.85;100.00;101073.16;5035390;28;20049;-71
2021/10/13 08:02:17;;;;;;;19.00;7.47;;;;;;;7.83;100.00;101073.22;5036352;28;20050;-68
2021/10/13 08:04:44;;;;;;;15.45;7.47;;;;;;;7.80;100.00;101078.63;5036309;28;20083;-68
2021/10/13 08:07:11;;;;;;;14.35;7.55;;;;;;;7.81;100.00;101063.56;5036363;28;20052;-68
2021/10/13 08:09:38;;;;;;;14.00;6.80;;;;;;;7.86;100.00;101066.91;5035168;28;20057;-69
2021/10/13 08:12:05;;;;;;;16.73;7.88;;;;;;;7.92;100.00;101069.38;5036230;28;20096;-69
2021/10/13 08:14:32;;;;;;;16.45;6.85;;;;;;;8.02;100.00;101062.78;5036191;28;20045;-68
2021/10/13 08:16:59;;;;;;;16.08;7.25;;;;;;;8.20;100.00;101071.03;5036244;28;20435;-69
2021/10/13 08:19:25;;;;;;;13.10;6.85;;;;;;;8.35;100.00;101066.94;5036158;28;20052;-70
2021/10/13 08:21:52;;;;;;;15.18;7.38;;;;;;;8.42;100.00;101070.22;5036430;28;20346;-67
2021/10/13 08:24:19;;;;;;;17.42;8.35;;;;;;;8.48;100.00;101069.13;5036317;28;20053;-68
2021/10/13 08:26:46;;;;;;;13.73;7.18;;;;;;;8.58;100.00;101056.38;5023061;28;20077;-68
2021/10/13 08:29:13;;;;;;;15.07;6.85;;;;;;;8.68;100.00;101063.09;5033120;28;20048;-70
2021/10/13 08:31:40;;;;;;;12.52;6.45;;;;;;;8.75;100.00;101077.91;5030501;28;20064;-70
2021/10/13 08:34:07;;;;;;;19.92;6.95;;;;;;;8.69;100.00;101078.13;5029231;28;20494;-70
2021/10/13 08:36:33;;;;;;;14.32;6.70;;;;;;;8.66;100.00;101071.13;5034716;28;20045;-70
2021/10/13 08:39:00;;;;;;;14.90;6.03;;;;;;;8.65;100.00;101084.47;5035533;28;20045;-68
2021/10/13 08:41:27;;;;;;;14.35;6.43;;;;;;;8.65;100.00;101080.03;5035550;28;20497;-71
2021/10/13 08:43:54;;;;;;;18.48;7.68;;;;;;;8.76;100.00;101092.94;5035763;28;20395;-71
2021/10/13 08:46:20;;;;;;;18.10;7.22;;;;;;;8.82;100.00;101086.50;5034591;28;20080;-69
2021/10/13 08:48:48;;;;;;;19.90;7.10;;;;;;;8.91;100.00;101082.63;5034422;28;20357;-70
2021/10/13 08:51:14;;;;;;;16.90;6.88;;;;;;;8.97;100.00;101079.72;5035355;28;20057;-68
2021/10/13 08:53:41;;;;;;;18.20;7.40;;;;;;;8.98;100.00;101077.94;5035432;28;20037;-70
2021/10/13 08:56:08;;;;;;;13.02;6.85;;;;;;;9.02;100.00;101080.41;5034347;28;20041;-70
2021/10/13 08:58:43;;;;;;;16.23;7.78;;;;;;;9.10;100.00;101069.47;5034256;28;20049;-69
2021/10/13 09:01:14;;;;;;;18.52;7.60;;;;;;;9.13;100.00;101081.75;5034115;28;20045;-70
2021/10/13 09:03:46;;;;;;;14.15;7.38;;;;;;;9.17;100.00;101080.72;5035268;28;20407;-69
2021/10/13 09:06:28;;;;;;;15.45;7.05;;;;;;;9.12;100.00;101082.69;5035168;28;20045;-70
2021/10/13 09:09:07;;;;;;;14.85;6.47;;;;;;;9.28;100.00;101085.59;5035093;28;20107;-69
2021/10/13 09:11:37;;;;;;;16.33;7.50;;;;;;;9.37;100.00;101086.09;5035037;28;20127;-69
2021/10/13 09:14:28;;;;;;;13.50;6.40;;;;;;;9.53;100.00;101085.44;5035130;28;20038;-70
2021/10/13 09:17:09;;;;;;;15.57;7.07;;;;;;;9.51;100.00;101088.19;5035143;28;20055;-69
2021/10/13 09:19:45;;;;;;;10.18;6.22;;;;;;;9.65;100.00;101076.94;5035192;28;20069;-70
2021/10/13 09:22:16;;;;;;;16.08;6.28;;;;;;;9.75;100.00;101096.09;5034957;28;20060;-69
2021/10/13 09:24:48;;;;;;;12.63;5.47;;;;;;;9.77;100.00;101086.22;5017597;28;20049;-69
2021/10/13 09:27:18;;;;;;;14.43;5.93;;;;;;;9.83;100.00;101078.88;5035188;28;20053;-70
2021/10/13 09:29:48;;;;;;;16.55;5.90;;;;;;;9.78;100.00;101074.63;5035172;28;20055;-69
2021/10/13 09:32:21;;;;;;;15.43;5.63;;;;;;;9.77;100.00;101080.88;5034965;28;20039;-69
2021/10/13 09:34:50;;;;;;;12.85;5.35;;;;;;;9.83;100.00;101081.56;5035002;28;20039;-70
2021/10/13 09:37:18;;;;;;;13.95;5.70;;;;;;;9.78;100.00;101079.09;5033913;28;20443;-69
2021/10/13 09:40:02;;;;;;;13.65;6.10;;;;;;;9.97;100.00;101083.63;5046322;28;20379;-69
2021/10/13 09:42:36;;;;;;;14.15;5.93;;;;;;;10.01;100.00;101096.75;5039462;28;20128;-70
2021/10/13 09:45:04;;;;;;;11.93;5.55;;;;;;;10.14;100.00;101102.41;5050560;28;20081;-69
2021/10/13 09:47:35;;;;;;;20.27;5.80;;;;;;;10.22;100.00;101104.75;5034910;28;20045;-69
2021/10/13 09:50:16;;;;;;;15.63;6.60;;;;;;;10.30;100.00;101107.09;5034925;28;20046;-68
2021/10/13 09:52:42;;;;;;;13.55;6.18;;;;;;;10.40;100.00;101108.41;5034735;28;20049;-70
2021/10/13 09:55:13;;;;;;;9.43;4.60;;;;;;;10.53;97.68;101113.22;5034781;28;20123;-69
2021/10/13 09:57:44;;;;;;;;;;;;;;;10.53;97.00;101107.88;5037042;28;20084;-70
2021/10/13 10:00:19;;;;;;;12.43;5.95;;;;;;;10.59;97.70;101112.94;5037889;28;19967;-69
2021/10/13 10:02:52;;;;;;;15.88;6.47;;;;;;;10.58;96.74;101111.22;5021788;28;20057;-69
2021/10/13 10:05:23;;;;;;;13.82;6.20;;;;;;;10.47;98.63;101109.03;5038901;28;20053;-69
2021/10/13 10:08:01;;;;;;;14.52;5.93;;;;;;;10.50;98.10;101108.03;5037635;28;20057;-69
2021/10/13 10:10:29;;;;;;;14.25;6.43;;;;;;;10.54;98.87;101114.94;5038539;28;20068;-69
2021/10/13 10:13:10;;;;;;;13.07;6.10;;;;;;;10.64;97.14;101115.38;5038448;28;20095;-70
2021/10/13 10:15:46;;;;;;;15.02;6.00;;;;;;;10.73;98.11;101113.16;5034471;28;20366;-72
2021/10/13 10:18:33;;;;;;;18.38;6.47;;;;;;;10.82;98.53;101116.34;5036576;28;20041;-70
2021/10/13 10:21:48;;;;;;;14.45;5.72;;;;;;;10.94;96.60;101112.22;5032999;28;20060;-71
2021/10/13 10:24:28;;;;;;;17.35;6.70;;;;;;;11.17;94.55;101111.13;5007897;28;20050;-68
2021/10/13 10:27:19;;;;;;;13.15;6.05;;;;;;;11.11;95.39;101116.78;4990594;28;20141;-70
2021/10/13 10:29:47;;;;;;;9.18;5.28;;;;;;;10.96;94.96;101116.53;5019000;28;20346;-67
2021/10/13 10:32:19;;;;;;;15.68;5.80;;;;;;;10.82;95.09;101121.66;5025477;28;20060;-68
2021/10/13 10:35:17;;;;;;;11.57;5.43;;;;;;;10.85;97.62;101126.88;5029072;28;20069;-69
2021/10/13 10:37:48;;;;;;;12.00;5.88;;;;;;;11.14;97.45;101120.16;5028903;28;20053;-70
2021/10/13 10:40:22;;;;;;;18.27;5.00;;;;;;;11.45;94.52;101117.81;5033169;28;20144;-69
2021/10/13 10:42:54;;;;;;;17.27;5.70;;;;;;;11.53;92.68;101118.28;5039947;28;20445;-71
2021/10/13 10:45:30;;;;;;;16.83;5.43;;;;;;;11.40;91.81;101110.00;5042693;28;20349;-68
2021/10/13 10:48:00;;;;;;;11.10;5.25;;;;;;;11.47;92.38;101117.72;5041327;28;20148;-68
2021/10/13 10:50:33;;;;;;;10.73;5.28;;;;;;;11.60;93.70;101112.63;5042928;28;20049;-70
2021/10/13 10:53:22;;;;;;;14.68;4.97;;;;;;;11.61;93.13;101106.34;5038405;28;20037;-69
2021/10/13 10:55:50;;;;;;;11.32;4.72;;;;;;;11.72;93.17;101113.81;5037881;28;20120;-69
2021/10/13 10:58:44;;;;;;;13.68;4.63;;;;;;;11.75;90.77;101124.34;5037791;28;20389;-70
2021/10/13 11:01:21;;;;;;;13.13;4.57;;;;;;;11.73;92.01;101132.47;5037765;28;20335;-70
2021/10/13 11:03:48;;;;;;;10.27;4.53;;;;;;;12.05;90.11;101135.31;5037468;28;20056;-70
2021/10/13 11:06:19;;;;;;;7.45;3.88;;;;;;;12.07;88.27;101135.25;5037690;28;20048;-70
2021/10/13 11:08:52;;;;;;;14.35;4.88;;;;;;;12.28;88.60;101132.41;5035283;28;20140;-70
2021/10/13 11:11:26;;;;;;;6.88;3.50;;;;;;;12.45;88.69;101127.03;5037334;28;20131;-70
2021/10/13 11:14:05;;;;;;;9.90;4.03;;;;;;;12.70;87.92;101120.31;5037160;28;20445;-70
2021/10/13 11:16:36;;;;;;;8.53;3.30;;;;;;;12.81;84.89;101125.09;5037235;28;20069;-71
2021/10/13 11:19:09;;;;;;;8.95;2.80;;;;;;;12.58;85.94;101110.31;5037230;28;20042;-71
2021/10/13 11:21:37;;;;;;;9.68;3.47;;;;;;;12.56;86.88;101131.81;5037200;28;20125;-70
2021/10/13 11:24:04;;;;;;;11.05;3.80;;;;;;;12.24;87.03;101139.72;5036875;28;20061;-70
2021/10/13 11:26:31;;;;;;;14.10;4.20;;;;;;;12.12;88.06;101129.66;5036069;28;20386;-69
2021/10/13 11:28:58;;;;;;;11.48;4.63;;;;;;;12.00;89.55;101132.00;5032366;28;20065;-70
2021/10/13 11:31:25;;;;;;;13.13;4.10;;;;;;;11.95;89.96;101131.38;5017299;28;20088;-71